createdAt,value
2022-10-29T00:00:01.899Z,62.60
2022-10-29T00:00:16.282Z,62.60
2022-10-29T00:00:23.730Z,62.50
2022-10-29T00:00:31.178Z,62.50
2022-10-29T00:00:39.136Z,62.50
2022-10-29T00:00:50.717Z,62.50
2022-10-29T00:00:58.278Z,62.60
2022-10-29T00:01:05.752Z,62.50
2022-10-29T00:01:13.177Z,62.50
2022-10-29T00:01:32.978Z,62.50
2022-10-29T00:01:40.485Z,62.50
2022-10-29T00:01:48.048Z,62.50
2022-10-29T00:01:55.588Z,62.40
2022-10-29T00:02:03.167Z,62.50
2022-10-29T00:02:22.925Z,62.40
2022-10-29T00:02:30.369Z,62.40
2022-10-29T00:02:37.906Z,62.40
2022-10-29T00:02:45.557Z,62.40
2022-10-29T00:02:53.282Z,62.40
2022-10-29T00:03:13.248Z,62.40
2022-10-29T00:03:21.576Z,62.40
2022-10-29T00:03:29.144Z,62.40
2022-10-29T00:03:37.279Z,62.40
2022-10-29T00:03:44.828Z,62.40
2022-10-29T00:03:52.337Z,62.40
2022-10-29T00:04:12.199Z,62.40
2022-10-29T00:04:19.772Z,62.40
2022-10-29T00:04:27.271Z,62.40
2022-10-29T00:04:34.730Z,62.40
2022-10-29T00:04:54.544Z,62.40
2022-10-29T00:05:02.031Z,62.40
2022-10-29T00:05:09.684Z,62.40
2022-10-29T00:05:17.242Z,62.40
2022-10-29T00:05:24.912Z,62.40
2022-10-29T00:05:32.534Z,62.40
2022-10-29T00:06:03.144Z,62.40
2022-10-29T00:06:12.349Z,62.40
2022-10-29T00:06:19.881Z,62.40
2022-10-29T00:06:28.590Z,62.40
2022-10-29T00:06:36.582Z,62.40
2022-10-29T00:06:44.113Z,62.40
2022-10-29T00:06:51.635Z,62.40
2022-10-29T00:06:59.116Z,62.30
2022-10-29T00:07:06.530Z,62.30
2022-10-29T00:07:13.958Z,62.40
2022-10-29T00:07:33.642Z,62.30
2022-10-29T00:07:41.044Z,62.40
2022-10-29T00:07:48.511Z,62.40
2022-10-29T00:07:56.339Z,62.30
2022-10-29T00:08:04.384Z,62.30
2022-10-29T00:08:24.246Z,62.30
2022-10-29T00:08:33.428Z,62.30
2022-10-29T00:08:42.135Z,62.30
2022-10-29T00:08:49.578Z,62.40
2022-10-29T00:08:57.015Z,62.40
2022-10-29T00:09:05.209Z,62.40
2022-10-29T00:09:12.640Z,62.30
2022-10-29T00:09:32.286Z,62.40
2022-10-29T00:09:39.758Z,62.30
2022-10-29T00:09:47.138Z,63.20
2022-10-29T00:09:54.599Z,62.40
2022-10-29T00:10:14.445Z,62.30
2022-10-29T00:10:21.858Z,62.30
2022-10-29T00:10:30.082Z,62.30
2022-10-29T00:10:37.529Z,62.30
2022-10-29T00:10:44.885Z,62.30
2022-10-29T00:11:12.098Z,62.30
2022-10-29T00:11:21.460Z,62.30
2022-10-29T00:11:28.890Z,62.30
2022-10-29T00:11:36.369Z,62.30
2022-10-29T00:11:43.731Z,62.30
2022-10-29T00:11:51.075Z,62.30
2022-10-29T00:11:58.478Z,62.30
2022-10-29T00:12:06.188Z,62.30
2022-10-29T00:12:13.573Z,62.30
2022-10-29T00:12:33.441Z,62.30
2022-10-29T00:12:40.824Z,62.30
2022-10-29T00:12:48.311Z,62.30
2022-10-29T00:12:55.950Z,62.20
2022-10-29T00:13:04.434Z,62.30
2022-10-29T00:13:24.524Z,62.30
2022-10-29T00:13:31.948Z,62.30
2022-10-29T00:13:40.038Z,62.30
2022-10-29T00:13:49.100Z,62.20
2022-10-29T00:13:59.332Z,62.30
2022-10-29T00:14:06.747Z,62.20
2022-10-29T00:14:14.152Z,62.30
2022-10-29T00:14:33.917Z,62.30
2022-10-29T00:14:41.271Z,62.30
2022-10-29T00:14:48.664Z,62.30
2022-10-29T00:14:56.068Z,62.30
2022-10-29T00:15:04.079Z,62.30
2022-10-29T00:15:24.086Z,62.30
2022-10-29T00:15:31.441Z,62.30
2022-10-29T00:15:41.736Z,62.30
2022-10-29T00:15:49.240Z,62.30
2022-10-29T00:15:56.577Z,62.30
2022-10-29T00:16:11.360Z,62.30
2022-10-29T00:16:21.246Z,62.30
2022-10-29T00:16:34.696Z,62.30
2022-10-29T00:16:42.157Z,62.30
2022-10-29T00:16:49.499Z,62.30
2022-10-29T00:16:57.396Z,62.30
2022-10-29T00:17:04.904Z,62.30
2022-10-29T00:17:12.382Z,62.30
2022-10-29T00:17:32.109Z,62.30
2022-10-29T00:17:39.511Z,62.30
2022-10-29T00:17:46.998Z,62.30
2022-10-29T00:17:54.710Z,62.30
2022-10-29T00:18:02.378Z,62.30
2022-10-29T00:18:22.049Z,62.30
2022-10-29T00:18:30.984Z,62.30
2022-10-29T00:18:38.422Z,62.30
2022-10-29T00:18:46.320Z,62.30
2022-10-29T00:18:55.157Z,62.30
2022-10-29T00:19:02.953Z,62.30
2022-10-29T00:19:22.866Z,62.30
2022-10-29T00:19:30.269Z,62.40
2022-10-29T00:19:37.732Z,62.30
2022-10-29T00:19:45.202Z,62.30
2022-10-29T00:19:52.671Z,62.40
2022-10-29T00:20:12.483Z,62.40
2022-10-29T00:20:21.178Z,62.40
2022-10-29T00:20:28.622Z,62.40
2022-10-29T00:20:35.976Z,62.40
2022-10-29T00:20:43.676Z,62.40
2022-10-29T00:20:59.744Z,62.40
2022-10-29T00:21:10.646Z,62.40
2022-10-29T00:21:22.604Z,62.40
2022-10-29T00:21:30.287Z,62.40
2022-10-29T00:21:38.242Z,62.40
2022-10-29T00:21:45.624Z,62.40
2022-10-29T00:21:53.017Z,62.40
2022-10-29T00:22:12.800Z,62.40
2022-10-29T00:22:20.435Z,62.40
2022-10-29T00:22:27.898Z,62.40
2022-10-29T00:22:35.298Z,62.30
2022-10-29T00:22:42.723Z,62.30
2022-10-29T00:22:54.473Z,62.30
2022-10-29T00:23:14.554Z,62.40
2022-10-29T00:23:21.930Z,62.40
2022-10-29T00:23:29.697Z,62.40
2022-10-29T00:23:37.118Z,62.40
2022-10-29T00:23:44.707Z,62.40
2022-10-29T00:23:53.175Z,62.40
2022-10-29T00:24:13.070Z,62.40
2022-10-29T00:24:20.471Z,62.50
2022-10-29T00:24:27.910Z,62.40
2022-10-29T00:24:35.599Z,62.40
2022-10-29T00:24:43.041Z,62.40
2022-10-29T00:25:02.716Z,62.50
2022-10-29T00:25:10.231Z,62.50
2022-10-29T00:25:17.632Z,62.50
2022-10-29T00:25:25.048Z,62.50
2022-10-29T00:25:32.412Z,62.40
2022-10-29T00:25:57.044Z,62.50
2022-10-29T00:26:04.826Z,62.40
2022-10-29T00:26:12.946Z,62.50
2022-10-29T00:26:22.287Z,62.50
2022-10-29T00:26:30.428Z,62.50
2022-10-29T00:26:37.837Z,62.50
2022-10-29T00:26:45.346Z,62.50
2022-10-29T00:26:52.783Z,62.50
2022-10-29T00:27:12.582Z,62.50
2022-10-29T00:27:20.018Z,62.50
2022-10-29T00:27:27.600Z,62.50
2022-10-29T00:27:35.015Z,62.50
2022-10-29T00:27:42.442Z,62.50
2022-10-29T00:28:02.152Z,62.50
2022-10-29T00:28:09.558Z,62.50
2022-10-29T00:28:16.958Z,62.50
2022-10-29T00:28:24.549Z,62.50
2022-10-29T00:28:32.687Z,62.50
2022-10-29T00:28:54.016Z,63.40
2022-10-29T00:29:01.525Z,62.50
2022-10-29T00:29:11.199Z,62.60
2022-10-29T00:29:18.618Z,62.50
2022-10-29T00:29:26.028Z,62.50
2022-10-29T00:29:33.429Z,62.50
2022-10-29T00:29:53.210Z,62.50
2022-10-29T00:30:00.614Z,62.60
2022-10-29T00:30:08.682Z,62.60
2022-10-29T00:30:16.426Z,62.60
2022-10-29T00:30:23.846Z,62.50
2022-10-29T00:30:43.558Z,62.50
2022-10-29T00:30:51.043Z,62.60
2022-10-29T00:31:02.379Z,63.40
2022-10-29T00:31:13.701Z,62.60
2022-10-29T00:31:24.478Z,62.60
2022-10-29T00:31:32.208Z,62.60
2022-10-29T00:31:39.827Z,62.60
2022-10-29T00:31:49.731Z,62.60
2022-10-29T00:31:57.305Z,62.60
2022-10-29T00:32:05.072Z,62.60
2022-10-29T00:32:12.847Z,62.60
2022-10-29T00:32:32.821Z,62.60
2022-10-29T00:32:40.214Z,62.60
2022-10-29T00:32:47.604Z,62.60
2022-10-29T00:32:55.307Z,62.60
2022-10-29T00:33:03.088Z,62.70
2022-10-29T00:33:22.979Z,62.60
2022-10-29T00:33:30.461Z,62.60
2022-10-29T00:33:38.141Z,62.70
2022-10-29T00:33:46.694Z,62.70
2022-10-29T00:33:55.437Z,62.70
2022-10-29T00:34:03.231Z,62.60
2022-10-29T00:34:23.078Z,62.70
2022-10-29T00:34:30.575Z,62.70
2022-10-29T00:34:38.318Z,62.70
2022-10-29T00:34:45.796Z,62.70
2022-10-29T00:34:53.289Z,62.70
2022-10-29T00:35:13.070Z,62.70
2022-10-29T00:35:20.557Z,62.70
2022-10-29T00:35:28.031Z,62.70
2022-10-29T00:35:35.519Z,62.70
2022-10-29T00:35:43.005Z,62.80
2022-10-29T00:35:57.295Z,63.60
2022-10-29T00:36:19.114Z,62.80
2022-10-29T00:36:31.746Z,62.80
2022-10-29T00:36:39.410Z,62.80
2022-10-29T00:36:46.780Z,62.80
2022-10-29T00:36:54.272Z,62.80
2022-10-29T00:37:01.640Z,63.60
2022-10-29T00:37:09.204Z,62.80
2022-10-29T00:37:19.602Z,62.80
2022-10-29T00:37:27.095Z,62.80
2022-10-29T00:37:35.787Z,62.80
2022-10-29T00:37:43.321Z,62.90
2022-10-29T00:38:02.974Z,62.90
2022-10-29T00:38:10.436Z,62.90
2022-10-29T00:38:17.858Z,62.90
2022-10-29T00:38:25.322Z,62.90
2022-10-29T00:38:34.646Z,62.90
2022-10-29T00:38:42.329Z,62.90
2022-10-29T00:39:02.793Z,62.90
2022-10-29T00:39:15.505Z,63.00
2022-10-29T00:39:22.909Z,63.00
2022-10-29T00:39:30.639Z,63.00
2022-10-29T00:39:38.015Z,63.00
2022-10-29T00:39:45.509Z,63.00
2022-10-29T00:39:52.862Z,62.90
2022-10-29T00:40:12.980Z,63.00
2022-10-29T00:40:20.949Z,62.90
2022-10-29T00:40:28.296Z,63.00
2022-10-29T00:40:39.046Z,63.00
2022-10-29T00:40:46.474Z,62.90
2022-10-29T00:40:54.932Z,63.00
2022-10-29T00:41:03.981Z,62.90
2022-10-29T00:41:15.137Z,63.10
2022-10-29T00:41:28.931Z,63.00
2022-10-29T00:41:36.326Z,63.00
2022-10-29T00:41:44.380Z,63.00
2022-10-29T00:41:53.031Z,63.00
2022-10-29T00:42:17.284Z,63.10
2022-10-29T00:42:24.720Z,63.00
2022-10-29T00:42:32.114Z,63.00
2022-10-29T00:42:39.711Z,63.10
2022-10-29T00:42:47.126Z,63.10
2022-10-29T00:42:54.533Z,63.00
2022-10-29T00:43:15.808Z,63.10
2022-10-29T00:43:25.958Z,63.10
2022-10-29T00:43:35.521Z,63.10
2022-10-29T00:43:52.872Z,63.10
2022-10-29T00:44:15.639Z,63.10
2022-10-29T00:44:28.439Z,63.20
2022-10-29T00:44:36.471Z,63.10
2022-10-29T00:44:44.209Z,63.20
2022-10-29T00:44:52.102Z,63.10
2022-10-29T00:44:59.629Z,63.20
2022-10-29T00:45:12.961Z,63.20
2022-10-29T00:45:22.053Z,63.20
2022-10-29T00:45:29.549Z,63.30
2022-10-29T00:45:37.051Z,63.20
2022-10-29T00:45:53.199Z,63.20
2022-10-29T00:46:16.156Z,63.20
2022-10-29T00:46:35.464Z,63.30
2022-10-29T00:46:48.101Z,63.30
2022-10-29T00:47:18.806Z,63.30
2022-10-29T00:47:36.461Z,63.30
2022-10-29T00:47:44.236Z,63.40
2022-10-29T00:47:53.637Z,63.40
2022-10-29T00:48:01.280Z,63.30
2022-10-29T00:48:08.945Z,63.30
2022-10-29T00:48:16.773Z,63.40
2022-10-29T00:48:27.919Z,63.40
2022-10-29T00:48:45.664Z,63.30
2022-10-29T00:48:56.414Z,63.40
2022-10-29T00:49:04.487Z,63.40
2022-10-29T00:49:12.178Z,63.40
2022-10-29T00:49:21.087Z,63.40
2022-10-29T00:49:29.440Z,63.40
2022-10-29T00:49:39.291Z,63.40
2022-10-29T00:49:51.401Z,63.40
2022-10-29T00:50:10.995Z,63.40
2022-10-29T00:50:20.043Z,63.40
2022-10-29T00:50:27.451Z,63.40
2022-10-29T00:50:35.636Z,63.40
2022-10-29T00:50:44.495Z,63.40
2022-10-29T00:50:53.698Z,63.40
2022-10-29T00:51:05.630Z,63.40
2022-10-29T00:51:15.603Z,63.40
2022-10-29T00:51:23.841Z,63.40
2022-10-29T00:51:32.500Z,63.40
2022-10-29T00:51:40.217Z,63.40
2022-10-29T00:51:48.695Z,64.30
2022-10-29T00:51:57.436Z,63.40
2022-10-29T00:52:06.741Z,63.40
2022-10-29T00:52:16.238Z,63.40
2022-10-29T00:52:26.045Z,63.50
2022-10-29T00:52:35.065Z,63.40
2022-10-29T00:52:46.260Z,63.40
2022-10-29T00:52:54.403Z,63.40
2022-10-29T00:53:02.633Z,63.40
2022-10-29T00:53:10.287Z,63.50
2022-10-29T00:53:23.086Z,63.50
2022-10-29T00:53:34.584Z,63.50
2022-10-29T00:54:03.094Z,63.40
2022-10-29T00:54:13.883Z,63.40
2022-10-29T00:54:21.509Z,63.50
2022-10-29T00:54:30.734Z,63.40
2022-10-29T00:54:42.147Z,64.30
2022-10-29T00:54:52.223Z,63.50
2022-10-29T00:55:03.636Z,64.30
2022-10-29T00:55:15.917Z,63.50
2022-10-29T00:55:23.395Z,63.50
2022-10-29T00:55:31.496Z,63.50
2022-10-29T00:55:39.013Z,63.50
2022-10-29T00:55:46.701Z,63.50
2022-10-29T00:55:54.212Z,63.50
2022-10-29T00:56:02.267Z,63.50
2022-10-29T00:56:09.873Z,63.60
2022-10-29T00:56:17.774Z,63.50
2022-10-29T00:56:27.305Z,63.50
2022-10-29T00:56:40.510Z,63.70
2022-10-29T00:57:00.857Z,63.50
2022-10-29T00:57:13.049Z,63.60
2022-10-29T00:57:29.997Z,63.60
2022-10-29T00:57:48.668Z,63.60
2022-10-29T00:57:58.645Z,63.60
2022-10-29T00:58:10.473Z,63.60
2022-10-29T00:58:18.412Z,63.70
2022-10-29T00:58:27.005Z,63.60
2022-10-29T00:58:35.139Z,63.60
2022-10-29T00:58:43.488Z,63.70
2022-10-29T00:58:51.355Z,63.70
2022-10-29T00:58:58.948Z,63.70
2022-10-29T00:59:09.015Z,63.70
2022-10-29T00:59:17.656Z,63.70
2022-10-29T00:59:25.605Z,63.70
2022-10-29T00:59:33.731Z,63.70
2022-10-29T00:59:42.620Z,63.70
2022-10-29T00:59:50.638Z,63.70
2022-10-29T00:59:58.288Z,63.80
2022-10-29T01:00:07.318Z,63.80
2022-10-29T01:00:16.393Z,63.70
2022-10-29T01:00:24.139Z,63.70
2022-10-29T01:00:31.694Z,63.70
2022-10-29T01:00:39.185Z,63.70
2022-10-29T01:00:46.709Z,63.70
2022-10-29T01:00:54.225Z,63.80
2022-10-29T01:01:02.555Z,63.80
2022-10-29T01:01:10.625Z,63.80
2022-10-29T01:01:18.496Z,63.80
2022-10-29T01:01:26.180Z,63.80
2022-10-29T01:01:34.055Z,63.80
2022-10-29T01:01:42.287Z,63.80
2022-10-29T01:01:54.227Z,63.80
2022-10-29T01:02:01.850Z,63.80
2022-10-29T01:02:10.712Z,63.80
2022-10-29T01:02:34.352Z,63.80
2022-10-29T01:02:44.187Z,63.80
2022-10-29T01:02:51.991Z,63.90
2022-10-29T01:02:59.820Z,63.80
2022-10-29T01:03:07.823Z,63.80
2022-10-29T01:03:15.451Z,63.80
2022-10-29T01:03:23.113Z,63.80
2022-10-29T01:03:30.602Z,63.80
2022-10-29T01:03:54.449Z,63.80
2022-10-29T01:04:02.920Z,63.90
2022-10-29T01:04:11.416Z,63.90
2022-10-29T01:04:20.970Z,63.80
2022-10-29T01:04:28.539Z,63.80
2022-10-29T01:04:37.784Z,63.80
2022-10-29T01:04:46.538Z,63.90
2022-10-29T01:04:54.576Z,63.90
2022-10-29T01:05:04.448Z,63.90
2022-10-29T01:05:15.207Z,63.90
2022-10-29T01:05:26.032Z,63.90
2022-10-29T01:05:35.786Z,63.80
2022-10-29T01:05:45.517Z,63.90
2022-10-29T01:05:54.382Z,63.80
2022-10-29T01:06:03.983Z,63.90
2022-10-29T01:06:11.689Z,63.80
2022-10-29T01:06:33.860Z,63.90
2022-10-29T01:06:47.366Z,63.80
2022-10-29T01:06:56.031Z,63.80
2022-10-29T01:07:03.750Z,63.90
2022-10-29T01:07:11.899Z,63.90
2022-10-29T01:07:20.862Z,63.80
2022-10-29T01:07:29.189Z,63.90
2022-10-29T01:07:36.649Z,63.80
2022-10-29T01:07:44.377Z,63.80
2022-10-29T01:07:51.977Z,63.90
2022-10-29T01:08:12.121Z,63.80
2022-10-29T01:08:20.811Z,63.80
2022-10-29T01:08:28.272Z,63.80
2022-10-29T01:08:35.697Z,63.80
2022-10-29T01:08:43.135Z,64.60
2022-10-29T01:08:50.529Z,63.80
2022-10-29T01:09:10.505Z,63.90
2022-10-29T01:09:17.911Z,63.80
2022-10-29T01:09:25.403Z,63.80
2022-10-29T01:09:32.870Z,63.90
2022-10-29T01:09:40.701Z,63.80
2022-10-29T01:10:00.748Z,63.90
2022-10-29T01:10:08.809Z,63.80
2022-10-29T01:10:17.680Z,63.80
2022-10-29T01:10:47.937Z,63.80
2022-10-29T01:11:19.768Z,63.90
2022-10-29T01:11:32.751Z,64.70
2022-10-29T01:11:40.069Z,63.90
2022-10-29T01:12:15.807Z,63.90
2022-10-29T01:12:49.063Z,63.80
2022-10-29T01:13:26.172Z,63.90
2022-10-29T01:13:57.940Z,64.00
2022-10-29T01:14:29.741Z,63.90
2022-10-29T01:15:11.152Z,63.90
2022-10-29T01:15:41.349Z,63.90
2022-10-29T01:16:19.776Z,63.90
2022-10-29T01:16:44.332Z,63.90
2022-10-29T01:17:17.741Z,63.80
2022-10-29T01:18:04.629Z,63.80
2022-10-29T01:18:18.061Z,63.90
2022-10-29T01:18:42.185Z,63.80
2022-10-29T01:19:14.105Z,63.80
2022-10-29T01:19:46.350Z,63.80
2022-10-29T01:20:29.821Z,63.80
2022-10-29T01:20:57.597Z,63.80
2022-10-29T01:21:17.796Z,63.80
2022-10-29T01:21:45.330Z,63.80
2022-10-29T01:22:01.357Z,63.70
2022-10-29T01:22:14.240Z,63.70
2022-10-29T01:22:47.061Z,63.70
2022-10-29T01:23:13.047Z,63.70
2022-10-29T01:23:45.535Z,63.70
2022-10-29T01:24:01.846Z,63.70
2022-10-29T01:24:46.933Z,63.70
2022-10-29T01:25:17.941Z,63.70
2022-10-29T01:25:59.734Z,63.70
2022-10-29T01:26:45.448Z,63.60
2022-10-29T01:27:16.838Z,63.70
2022-10-29T01:27:54.664Z,63.60
2022-10-29T01:28:17.020Z,63.60
2022-10-29T01:28:40.194Z,63.60
2022-10-29T01:29:18.122Z,63.60
2022-10-29T01:29:42.234Z,63.50
2022-10-29T01:30:19.633Z,63.50
2022-10-29T01:31:20.860Z,63.60
2022-10-29T01:31:37.136Z,63.50
2022-10-29T01:31:57.045Z,63.50
2022-10-29T01:32:25.262Z,63.50
2022-10-29T01:32:50.819Z,63.50
2022-10-29T01:33:20.633Z,63.50
2022-10-29T01:33:54.393Z,63.50
2022-10-29T01:34:28.207Z,63.50
2022-10-29T01:34:40.472Z,63.50
2022-10-29T01:35:08.113Z,63.50
2022-10-29T01:35:40.471Z,63.50
2022-10-29T01:36:02.168Z,63.50
2022-10-29T01:36:37.956Z,63.50
2022-10-29T01:36:56.130Z,63.40
2022-10-29T01:37:18.486Z,63.40
2022-10-29T01:38:00.028Z,63.40
2022-10-29T01:38:22.268Z,63.40
2022-10-29T01:38:47.699Z,63.30
2022-10-29T01:39:05.262Z,63.30
2022-10-29T01:39:32.250Z,63.30
2022-10-29T01:39:53.284Z,63.20
2022-10-29T01:40:25.968Z,63.20
2022-10-29T01:40:52.019Z,63.20
2022-10-29T01:41:23.094Z,63.20
2022-10-29T01:41:44.320Z,63.10
2022-10-29T01:42:07.865Z,63.10
2022-10-29T01:42:32.441Z,63.10
2022-10-29T01:42:47.543Z,63.10
2022-10-29T01:43:12.441Z,63.10
2022-10-29T01:43:50.197Z,63.10
2022-10-29T01:44:32.031Z,63.10
2022-10-29T01:45:01.209Z,63.00
2022-10-29T01:45:23.374Z,63.00
2022-10-29T01:45:34.737Z,63.00
2022-10-29T01:46:00.569Z,63.00
2022-10-29T01:46:18.131Z,63.00
2022-10-29T01:46:38.241Z,63.00
2022-10-29T01:46:53.869Z,63.90
2022-10-29T01:47:18.485Z,62.90
2022-10-29T01:47:32.081Z,62.90
2022-10-29T01:47:55.770Z,62.90
2022-10-29T01:48:09.981Z,62.90
2022-10-29T01:48:22.228Z,62.90
2022-10-29T01:48:37.485Z,62.90
2022-10-29T01:48:49.152Z,62.90
2022-10-29T01:49:02.333Z,62.80
2022-10-29T01:49:18.470Z,62.90
2022-10-29T01:49:32.695Z,62.80
2022-10-29T01:49:42.881Z,62.90
2022-10-29T01:50:02.678Z,62.90
2022-10-29T01:50:13.491Z,62.90
2022-10-29T01:50:23.619Z,62.90
2022-10-29T01:50:32.250Z,62.90
2022-10-29T01:50:42.614Z,62.90
2022-10-29T01:50:53.925Z,62.90
2022-10-29T01:51:08.432Z,62.90
2022-10-29T01:51:29.631Z,62.90
2022-10-29T01:51:38.538Z,62.90
2022-10-29T01:51:47.520Z,62.90
2022-10-29T01:51:57.488Z,62.90
2022-10-29T01:52:07.767Z,62.90
2022-10-29T01:52:18.142Z,62.90
2022-10-29T01:52:29.652Z,62.90
2022-10-29T01:52:38.985Z,62.90
2022-10-29T01:52:48.861Z,62.90
2022-10-29T01:52:57.277Z,62.90
2022-10-29T01:53:06.159Z,62.90
2022-10-29T01:53:14.318Z,62.90
2022-10-29T01:53:22.788Z,63.00
2022-10-29T01:53:31.184Z,62.90
2022-10-29T01:53:40.661Z,62.90
2022-10-29T01:53:49.304Z,62.90
2022-10-29T01:53:59.319Z,62.90
2022-10-29T01:54:10.572Z,62.90
2022-10-29T01:54:17.966Z,62.90
2022-10-29T01:54:25.476Z,62.90
2022-10-29T01:54:32.833Z,62.90
2022-10-29T01:54:43.157Z,62.90
2022-10-29T01:54:50.525Z,63.00
2022-10-29T01:54:59.223Z,62.90
2022-10-29T01:55:07.308Z,62.90
2022-10-29T01:55:23.135Z,63.00
2022-10-29T01:55:35.460Z,63.00
2022-10-29T01:55:42.942Z,63.00
2022-10-29T01:55:50.306Z,63.00
2022-10-29T01:55:57.764Z,62.90
2022-10-29T01:56:05.352Z,62.90
2022-10-29T01:56:12.919Z,63.00
2022-10-29T01:56:20.302Z,62.90
2022-10-29T01:56:27.955Z,62.90
2022-10-29T01:56:35.291Z,63.00
2022-10-29T01:56:42.801Z,63.00
2022-10-29T01:57:00.602Z,63.00
2022-10-29T01:57:27.003Z,63.00
2022-10-29T01:57:39.577Z,62.90
2022-10-29T01:57:47.307Z,62.90
2022-10-29T01:57:54.941Z,63.00
2022-10-29T01:58:07.118Z,62.90
2022-10-29T01:58:27.655Z,63.00
2022-10-29T01:58:37.976Z,63.00
2022-10-29T01:58:49.538Z,62.90
2022-10-29T01:58:59.442Z,62.90
2022-10-29T01:59:18.218Z,62.90
2022-10-29T01:59:51.252Z,62.90
2022-10-29T02:00:10.180Z,62.90
2022-10-29T02:00:21.010Z,62.90
2022-10-29T02:00:43.291Z,63.00
2022-10-29T02:01:04.968Z,62.90
2022-10-29T02:01:31.885Z,62.90
2022-10-29T02:01:42.428Z,62.90
2022-10-29T02:02:25.137Z,62.90
2022-10-29T02:03:10.622Z,62.90
2022-10-29T02:03:31.399Z,62.90
2022-10-29T02:03:53.633Z,62.90
2022-10-29T02:04:22.760Z,62.90
2022-10-29T02:04:55.023Z,62.90
2022-10-29T02:05:14.415Z,63.00
2022-10-29T02:05:48.914Z,62.90
2022-10-29T02:06:15.488Z,63.00
2022-10-29T02:06:31.758Z,63.00
2022-10-29T02:06:53.279Z,63.00
2022-10-29T02:07:08.190Z,63.00
2022-10-29T02:07:29.609Z,63.00
2022-10-29T02:08:00.152Z,63.00
2022-10-29T02:08:32.445Z,63.10
2022-10-29T02:08:52.224Z,63.10
2022-10-29T02:09:21.275Z,63.10
2022-10-29T02:09:42.094Z,63.10
2022-10-29T02:10:06.775Z,63.20
2022-10-29T02:10:39.942Z,63.10
2022-10-29T02:11:14.848Z,63.20
2022-10-29T02:11:31.000Z,63.20
2022-10-29T02:12:03.696Z,63.20
2022-10-29T02:12:17.185Z,63.20
2022-10-29T02:12:34.983Z,63.20
2022-10-29T02:12:51.800Z,63.20
2022-10-29T02:13:00.016Z,63.20
2022-10-29T02:13:09.869Z,63.20
2022-10-29T02:13:19.251Z,63.20
2022-10-29T02:13:33.584Z,63.20
2022-10-29T02:13:52.203Z,63.20
2022-10-29T02:14:21.427Z,63.30
2022-10-29T02:14:40.560Z,63.30
2022-10-29T02:15:13.513Z,63.30
2022-10-29T02:15:54.615Z,63.30
2022-10-29T02:16:05.863Z,63.30
2022-10-29T02:16:15.525Z,63.30
2022-10-29T02:16:24.845Z,63.30
2022-10-29T02:16:33.265Z,63.30
2022-10-29T02:16:41.106Z,63.30
2022-10-29T02:16:49.699Z,63.30
2022-10-29T02:16:58.655Z,63.30
2022-10-29T02:17:07.623Z,63.30
2022-10-29T02:17:15.145Z,63.30
2022-10-29T02:17:22.664Z,63.30
2022-10-29T02:17:32.835Z,63.30
2022-10-29T02:17:40.333Z,63.30
2022-10-29T02:17:48.336Z,63.30
2022-10-29T02:18:03.807Z,63.30
2022-10-29T02:18:11.493Z,63.30
2022-10-29T02:18:19.426Z,63.30
2022-10-29T02:18:26.964Z,63.30
2022-10-29T02:18:45.892Z,63.30
2022-10-29T02:18:53.508Z,63.30
2022-10-29T02:19:01.262Z,63.30
2022-10-29T02:19:08.748Z,63.30
2022-10-29T02:19:16.322Z,63.30
2022-10-29T02:19:23.943Z,63.30
2022-10-29T02:19:32.809Z,63.30
2022-10-29T02:19:40.304Z,63.30
2022-10-29T02:19:47.734Z,63.30
2022-10-29T02:19:55.170Z,63.30
2022-10-29T02:20:08.019Z,63.30
2022-10-29T02:20:17.098Z,63.30
2022-10-29T02:20:24.469Z,63.30
2022-10-29T02:20:32.182Z,63.30
2022-10-29T02:20:44.697Z,63.30
2022-10-29T02:20:52.352Z,63.30
2022-10-29T02:20:59.723Z,63.30
2022-10-29T02:21:07.171Z,63.30
2022-10-29T02:21:19.255Z,63.30
2022-10-29T02:21:26.987Z,63.30
2022-10-29T02:21:34.389Z,63.30
2022-10-29T02:21:42.757Z,63.30
2022-10-29T02:21:51.840Z,63.40
2022-10-29T02:21:59.676Z,63.30
2022-10-29T02:22:07.179Z,63.30
2022-10-29T02:22:27.066Z,63.30
2022-10-29T02:22:34.630Z,63.30
2022-10-29T02:22:42.493Z,63.30
2022-10-29T02:22:50.005Z,63.30
2022-10-29T02:22:57.937Z,63.30
2022-10-29T02:23:17.766Z,63.30
2022-10-29T02:23:25.448Z,63.30
2022-10-29T02:23:32.959Z,63.30
2022-10-29T02:23:40.468Z,63.30
2022-10-29T02:23:48.411Z,63.20
2022-10-29T02:23:55.948Z,63.30
2022-10-29T02:24:15.918Z,63.30
2022-10-29T02:24:24.985Z,63.20
2022-10-29T02:24:32.539Z,63.20
2022-10-29T02:24:40.118Z,63.20
2022-10-29T02:24:47.596Z,63.20
2022-10-29T02:25:08.671Z,63.20
2022-10-29T02:25:16.217Z,63.20
2022-10-29T02:25:24.104Z,63.20
2022-10-29T02:25:31.575Z,63.20
2022-10-29T02:25:39.951Z,63.20
2022-10-29T02:25:47.908Z,63.20
2022-10-29T02:26:07.654Z,63.20
2022-10-29T02:26:15.467Z,63.20
2022-10-29T02:26:22.925Z,63.20
2022-10-29T02:26:30.385Z,64.00
2022-10-29T02:26:37.738Z,63.20
2022-10-29T02:26:57.483Z,63.20
2022-10-29T02:27:05.035Z,63.20
2022-10-29T02:27:12.484Z,63.20
2022-10-29T02:27:20.011Z,63.20
2022-10-29T02:27:27.390Z,63.20
2022-10-29T02:27:47.356Z,63.20
2022-10-29T02:27:55.127Z,63.20
2022-10-29T02:28:02.800Z,63.20
2022-10-29T02:28:10.345Z,63.20
2022-10-29T02:28:17.840Z,63.20
2022-10-29T02:28:37.707Z,63.20
2022-10-29T02:28:45.312Z,63.20
2022-10-29T02:28:52.680Z,63.10
2022-10-29T02:29:00.180Z,63.20
2022-10-29T02:29:07.560Z,63.20
2022-10-29T02:29:27.360Z,63.20
2022-10-29T02:29:35.046Z,63.10
2022-10-29T02:29:42.507Z,63.10
2022-10-29T02:29:49.888Z,63.10
2022-10-29T02:29:57.324Z,63.10
2022-10-29T02:30:18.113Z,63.10
2022-10-29T02:30:25.617Z,63.10
2022-10-29T02:30:33.057Z,63.10
2022-10-29T02:30:40.571Z,63.20
2022-10-29T02:30:48.050Z,63.20
2022-10-29T02:31:07.727Z,63.20
2022-10-29T02:31:15.155Z,63.10
2022-10-29T02:31:22.603Z,63.10
2022-10-29T02:31:30.227Z,63.10
2022-10-29T02:31:37.620Z,63.10
2022-10-29T02:31:57.337Z,63.10
2022-10-29T02:32:04.985Z,63.10
2022-10-29T02:32:12.545Z,63.10
2022-10-29T02:32:20.057Z,63.10
2022-10-29T02:32:28.029Z,63.10
2022-10-29T02:32:47.896Z,63.10
2022-10-29T02:32:55.642Z,63.10
2022-10-29T02:33:03.328Z,63.20
2022-10-29T02:33:10.848Z,63.10
2022-10-29T02:33:18.364Z,63.10
2022-10-29T02:33:26.064Z,63.10
2022-10-29T02:33:45.959Z,63.10
2022-10-29T02:33:53.316Z,63.10
2022-10-29T02:34:00.815Z,63.10
2022-10-29T02:34:08.347Z,63.10
2022-10-29T02:34:15.878Z,63.10
2022-10-29T02:34:35.487Z,63.00
2022-10-29T02:34:42.870Z,63.10
2022-10-29T02:34:50.311Z,63.10
2022-10-29T02:34:57.701Z,63.00
2022-10-29T02:35:08.716Z,63.00
2022-10-29T02:35:16.134Z,63.10
2022-10-29T02:35:35.823Z,63.00
2022-10-29T02:35:43.289Z,63.10
2022-10-29T02:35:50.737Z,63.00
2022-10-29T02:35:58.270Z,63.10
2022-10-29T02:36:05.976Z,63.00
2022-10-29T02:36:25.874Z,63.00
2022-10-29T02:36:33.312Z,63.00
2022-10-29T02:36:40.681Z,63.00
2022-10-29T02:36:48.173Z,63.00
2022-10-29T02:37:07.802Z,63.00
2022-10-29T02:37:15.323Z,63.00
2022-10-29T02:37:22.728Z,63.10
2022-10-29T02:37:30.369Z,63.10
2022-10-29T02:37:38.166Z,63.10
2022-10-29T02:37:57.872Z,63.00
2022-10-29T02:38:05.251Z,63.00
2022-10-29T02:38:12.721Z,63.10
2022-10-29T02:38:20.065Z,63.00
2022-10-29T02:38:27.476Z,63.00
2022-10-29T02:38:47.128Z,63.00
2022-10-29T02:38:54.520Z,63.00
2022-10-29T02:39:04.504Z,63.00
2022-10-29T02:39:11.941Z,63.00
2022-10-29T02:39:19.342Z,63.10
2022-10-29T02:39:26.702Z,62.90
2022-10-29T02:39:41.723Z,63.00
2022-10-29T02:39:49.105Z,62.90
2022-10-29T02:39:56.611Z,63.00
2022-10-29T02:40:17.113Z,62.90
2022-10-29T02:40:24.542Z,62.90
2022-10-29T02:40:32.055Z,62.90
2022-10-29T02:40:39.476Z,62.90
2022-10-29T02:40:46.863Z,62.80
2022-10-29T02:41:06.584Z,62.80
2022-10-29T02:41:13.900Z,62.80
2022-10-29T02:41:21.258Z,62.80
2022-10-29T02:41:28.672Z,62.80
2022-10-29T02:41:36.040Z,62.80
2022-10-29T02:41:57.953Z,62.80
2022-10-29T02:42:05.462Z,62.80
2022-10-29T02:42:12.901Z,62.80
2022-10-29T02:42:20.354Z,62.80
2022-10-29T02:42:28.027Z,62.80
2022-10-29T02:42:48.080Z,62.70
2022-10-29T02:42:56.505Z,62.80
2022-10-29T02:43:04.199Z,62.70
2022-10-29T02:43:11.725Z,62.70
2022-10-29T02:43:31.640Z,62.80
2022-10-29T02:43:39.129Z,62.70
2022-10-29T02:43:46.625Z,62.70